Terminal Aerodrome Forecast
Issued by NWS Boston, MA

Home | Current Version | Previous Version | Text Only | Print | Product List | Glossary On
Versions: 1 2 3 4 5 6 7 8 9 10 11 12 13 14 15 16 17 18 19 20 21 22 23
000
FTUS41 KBOX 161127
TAFBOS
TAF
KBOS 161127Z 1612/1718 27012KT P6SM SKC
     FM161400 27012G22KT P6SM FEW250
     FM161800 27014KT P6SM BKN100
     FM170100 30011KT P6SM FEW250
     FM171600 31007KT P6SM FEW200=

USA.gov is the U.S. government's official web portal to all federal, state and local government web resources and services.